Time;durP1;ratioP1;P1;durP2;ratioP2;P2;SDS_P1;SDS_P2;PMS_P1;PMS_P2;Temp;Humidity;BMP_temperature;BMP_pressure;BME280_temperature;BME280_humidity;BME280_pressure;Samples;Min_cycle;Max_cycle;Signal;HPM_P1;HPM_P2
2023/09/26 05:40:54;;;;;;;4.25;0.95;;;;;;;;;;6169285;23;20025;-85
2023/09/26 05:58:53;;;;;;;10.38;0.77;;;;;;;;;;6158676;23;20340;-85
2023/09/26 06:11:03;;;;;;;1.80;0.50;;;;;;;;;;6118356;23;20434;-85
2023/09/26 06:13:45;;;;;;;5.35;0.98;;;;;;;;;;6161227;23;20012;-86
2023/09/26 06:19:34;;;;;;;7.68;1.45;;;;;;;;;;6182442;23;20047;-86
2023/09/26 06:22:31;;;;;;;4.53;1.15;;;;;;;;;;6162382;23;20017;-86
2023/09/26 06:31:18;;;;;;;;;;;;;;;;;;;;;
2023/09/26 06:37:14;;;;;;;3.92;1.00;;;;;;;;;;6054055;23;20460;-86
2023/09/26 06:42:48;;;;;;;2.20;0.85;;;;;;;;;;6121324;23;20010;-86
2023/09/26 06:48:41;;;;;;;5.47;1.15;;;;;;;;;;6067845;23;20020;-88
2023/09/26 06:51:33;;;;;;;4.43;1.20;;;;;;;;;;6095337;23;20015;-86
2023/09/26 15:16:16;;;;;;;2.67;0.80;;;;;;;;;;6090572;23;20048;-84
2023/09/26 15:19:02;;;;;;;2.88;0.45;;;;;;;;;;6091909;23;20437;-86
2023/09/26 15:21:28;;;;;;;2.42;0.60;;;;;;;;;;6091689;23;20593;-84
2023/09/26 15:23:57;;;;;;;4.03;1.17;;;;;;;;;;6092447;23;20021;-85
2023/09/26 15:33:00;;;;;;;3.88;0.63;;;;;;;;;;6093210;23;20009;-88
2023/09/26 15:35:26;;;;;;;2.22;0.50;;;;;;;;;;6087019;23;20018;-88
2023/09/26 15:38:24;;;;;;;8.00;1.85;;;;;;;;;;6095240;23;20011;-85
2023/09/26 15:50:22;;;;;;;3.90;0.57;;;;;;;;;;6177944;23;20027;-88
2023/09/26 15:52:49;;;;;;;1.90;0.52;;;;;;;;;;6139829;23;20284;-86
2023/09/26 15:58:37;;;;;;;2.25;0.77;;;;;;;;;;6122887;23;20316;-84
2023/09/26 16:01:03;;;;;;;3.20;0.65;;;;;;;;;;6122858;23;20053;-86
2023/09/26 16:03:29;;;;;;;2.90;0.65;;;;;;;;;;6123121;23;20007;-87
2023/09/26 16:06:00;;;;;;;3.55;0.73;;;;;;;;;;6113708;23;20006;-85
2023/09/26 16:08:26;;;;;;;4.65;0.68;;;;;;;;;;6120703;23;20457;-84
2023/09/26 16:13:50;;;;;;;3.70;0.88;;;;;;;;;;6063534;23;20011;-84
2023/09/26 16:16:16;;;;;;;2.63;0.52;;;;;;;;;;6112668;23;20021;-83
2023/09/26 16:18:42;;;;;;;2.17;0.40;;;;;;;;;;6119967;23;20029;-86
2023/09/26 16:21:08;;;;;;;3.55;1.02;;;;;;;;;;6120600;23;20010;-86
2023/09/26 16:23:43;;;;;;;2.78;0.52;;;;;;;;;;6122183;23;20121;-87
2023/09/26 16:26:09;;;;;;;3.80;0.70;;;;;;;;;;6120693;23;20341;-87
2023/09/26 16:28:35;;;;;;;2.95;0.80;;;;;;;;;;6119924;23;20014;-82
2023/09/26 16:31:01;;;;;;;4.05;0.93;;;;;;;;;;6121891;23;20005;-86
2023/09/26 16:33:33;;;;;;;9.77;1.13;;;;;;;;;;6120891;23;20014;-86
2023/09/26 16:35:59;;;;;;;1.48;0.47;;;;;;;;;;6122694;23;20014;-87
2023/09/26 16:38:25;;;;;;;4.60;0.70;;;;;;;;;;6122564;23;20117;-86
2023/09/26 16:40:51;;;;;;;4.18;0.90;;;;;;;;;;6124048;23;20057;-84
2023/09/26 16:43:17;;;;;;;2.88;0.65;;;;;;;;;;6122268;23;20060;-85
2023/09/26 16:45:43;;;;;;;5.38;1.15;;;;;;;;;;6124026;23;20014;-86
2023/09/26 16:48:09;;;;;;;4.47;0.60;;;;;;;;;;6124143;23;20501;-85
2023/09/26 16:50:35;;;;;;;3.85;0.98;;;;;;;;;;6122622;23;20014;-87
2023/09/26 16:53:01;;;;;;;2.78;0.70;;;;;;;;;;6129160;23;20054;-86
2023/09/26 16:55:27;;;;;;;2.25;0.43;;;;;;;;;;6155085;23;20064;-86
2023/09/26 16:57:53;;;;;;;4.00;0.85;;;;;;;;;;6155254;23;20354;-86
2023/09/26 17:00:23;;;;;;;4.38;0.90;;;;;;;;;;6154910;23;20020;-85
2023/09/26 17:02:49;;;;;;;7.00;0.70;;;;;;;;;;6155561;23;20424;-86
2023/09/26 17:05:15;;;;;;;8.93;0.80;;;;;;;;;;6154871;23;20013;-86
2023/09/26 17:07:41;;;;;;;5.72;0.82;;;;;;;;;;6155374;23;20420;-86
2023/09/26 17:10:08;;;;;;;2.88;0.95;;;;;;;;;;6156445;23;20021;-87
2023/09/26 17:12:34;;;;;;;2.60;0.65;;;;;;;;;;6156908;23;20001;-85
2023/09/26 17:15:00;;;;;;;3.25;0.82;;;;;;;;;;6155640;23;20476;-87
2023/09/26 17:17:26;;;;;;;4.38;0.70;;;;;;;;;;6155724;23;20024;-86
2023/09/26 17:19:52;;;;;;;2.58;0.55;;;;;;;;;;6156188;23;20096;-85
2023/09/26 17:22:33;;;;;;;6.97;1.55;;;;;;;;;;6154961;23;20013;-85
2023/09/26 17:24:59;;;;;;;3.72;0.77;;;;;;;;;;6157219;23;20017;-85
2023/09/26 17:27:31;;;;;;;1.98;0.68;;;;;;;;;;6158612;23;20460;-85
2023/09/26 17:30:03;;;;;;;2.85;0.50;;;;;;;;;;6161385;23;20009;-86
2023/09/26 17:55:37;;;;;;;;;;;;;;;;;;;;;
2023/09/26 17:58:12;;;;;;;3.50;0.80;;;;;;;;;;6158748;23;20083;-87
2023/09/26 18:00:44;;;;;;;2.85;0.68;;;;;;;;;;6224621;23;20034;-83
2023/09/26 18:03:13;;;;;;;6.15;0.50;;;;;;;;;;6223813;23;20008;-82
2023/09/26 18:05:39;;;;;;;11.63;0.70;;;;;;;;;;6224664;23;20000;-83
2023/09/26 18:08:05;;;;;;;4.00;1.17;;;;;;;;;;6251446;23;20004;-81
2023/09/26 18:10:31;;;;;;;6.68;0.82;;;;;;;;;;6251725;23;19999;-83
2023/09/26 18:12:57;;;;;;;3.30;0.88;;;;;;;;;;6252224;23;20437;-83
2023/09/26 18:15:23;;;;;;;2.03;0.43;;;;;;;;;;6224324;23;20011;-81
2023/09/26 18:17:49;;;;;;;2.10;1.02;;;;;;;;;;6224330;23;20019;-83
2023/09/26 18:20:15;;;;;;;4.82;1.40;;;;;;;;;;6251427;23;20011;-82
2023/09/26 18:22:41;;;;;;;7.53;2.13;;;;;;;;;;6251401;23;20012;-83
2023/09/26 18:25:09;;;;;;;5.43;1.70;;;;;;;;;;6251000;23;20408;-83
2023/09/26 18:27:35;;;;;;;3.08;0.75;;;;;;;;;;6251908;23;20008;-82
2023/09/26 18:30:02;;;;;;;3.67;0.60;;;;;;;;;;6223713;23;20183;-83
2023/09/26 18:32:28;;;;;;;2.55;0.80;;;;;;;;;;6251456;23;20030;-81
